createdAt,value
2022-08-16T00:02:30.650Z,27.60
2022-08-16T00:04:59.954Z,27.60
2022-08-16T00:07:29.226Z,27.60
2022-08-16T00:09:57.277Z,27.60
2022-08-16T00:12:24.244Z,27.60
2022-08-16T00:14:56.674Z,27.60
2022-08-16T00:17:24.949Z,27.60
2022-08-16T00:19:53.361Z,27.60
2022-08-16T00:22:21.316Z,27.60
2022-08-16T00:24:55.631Z,27.60
2022-08-16T00:27:23.695Z,27.60
2022-08-16T00:30:08.915Z,27.60
2022-08-16T00:32:39.824Z,27.60
2022-08-16T00:35:13.287Z,27.60
2022-08-16T00:37:57.412Z,27.60
2022-08-16T00:40:43.908Z,27.60
2022-08-16T00:43:20.377Z,27.50
2022-08-16T00:46:32.916Z,27.50
2022-08-16T00:48:53.431Z,27.50
2022-08-16T00:51:22.815Z,27.50
2022-08-16T00:53:53.313Z,27.50
2022-08-16T00:56:57.150Z,27.50
2022-08-16T00:59:15.072Z,27.50
2022-08-16T01:01:43.281Z,27.50
2022-08-16T01:04:29.245Z,27.50
2022-08-16T01:07:01.232Z,27.50
2022-08-16T01:09:33.130Z,27.50
2022-08-16T01:12:03.226Z,27.50
2022-08-16T01:14:37.334Z,27.40
2022-08-16T01:17:08.457Z,27.50
2022-08-16T01:19:43.713Z,27.40
2022-08-16T01:22:48.448Z,27.50
2022-08-16T01:25:11.515Z,27.40
2022-08-16T01:27:43.984Z,27.40
2022-08-16T01:30:26.348Z,27.40
2022-08-16T01:33:01.360Z,27.40
2022-08-16T01:35:40.773Z,27.50
2022-08-16T01:38:25.935Z,27.40
2022-08-16T01:41:02.054Z,27.40
2022-08-16T01:43:31.123Z,27.40
2022-08-16T01:46:38.423Z,27.40
2022-08-16T01:48:53.377Z,27.40
2022-08-16T01:51:23.951Z,27.40
2022-08-16T01:53:54.585Z,27.40
2022-08-16T01:56:24.837Z,27.40
2022-08-16T01:58:54.973Z,27.30
2022-08-16T02:01:22.851Z,27.40
2022-08-16T02:03:51.948Z,27.30
2022-08-16T02:06:34.210Z,27.40
2022-08-16T02:09:05.167Z,27.30
2022-08-16T02:11:47.909Z,27.30
2022-08-16T02:14:21.717Z,27.30
2022-08-16T02:16:49.671Z,27.30
2022-08-16T02:19:18.609Z,27.30
2022-08-16T02:22:08.531Z,27.30
2022-08-16T02:24:42.269Z,27.30
2022-08-16T02:27:13.557Z,27.30
2022-08-16T02:29:42.974Z,27.30
2022-08-16T02:32:49.787Z,27.30
2022-08-16T02:34:57.978Z,27.30
2022-08-16T02:37:39.811Z,27.30
2022-08-16T02:40:16.337Z,27.30
2022-08-16T02:42:49.737Z,27.30
2022-08-16T02:45:20.125Z,27.30
2022-08-16T02:48:00.704Z,27.30
2022-08-16T02:51:03.110Z,27.30
2022-08-16T02:53:23.511Z,27.30
2022-08-16T02:55:50.797Z,27.20
2022-08-16T02:58:18.745Z,27.30
2022-08-16T03:00:50.062Z,27.30
2022-08-16T03:03:18.023Z,27.20
2022-08-16T03:05:50.014Z,27.20
2022-08-16T03:08:50.267Z,27.20
2022-08-16T03:11:16.939Z,27.30
2022-08-16T03:13:51.139Z,27.20
2022-08-16T03:16:38.296Z,27.20
2022-08-16T03:19:07.395Z,27.20
2022-08-16T03:21:37.365Z,27.20
2022-08-16T03:24:28.237Z,27.20
2022-08-16T03:26:58.749Z,27.20
2022-08-16T03:29:31.393Z,27.20
2022-08-16T03:32:03.437Z,27.20
2022-08-16T03:34:33.415Z,27.20
2022-08-16T03:37:00.569Z,27.20
2022-08-16T03:39:27.687Z,27.10
2022-08-16T03:41:59.824Z,27.10
2022-08-16T03:44:44.455Z,27.10
2022-08-16T03:47:18.698Z,27.10
2022-08-16T03:49:51.761Z,27.10
2022-08-16T03:52:20.305Z,27.10
2022-08-16T03:54:53.291Z,27.10
2022-08-16T03:57:24.073Z,27.10
2022-08-16T03:59:59.340Z,27.10
2022-08-16T04:02:31.758Z,27.10
2022-08-16T04:04:58.833Z,27.10
2022-08-16T04:07:25.833Z,27.10
2022-08-16T04:09:52.536Z,27.10
2022-08-16T04:12:53.077Z,27.10
2022-08-16T04:15:10.282Z,27.10
2022-08-16T04:17:37.074Z,27.10
2022-08-16T04:20:29.371Z,27.10
2022-08-16T04:22:58.560Z,27.00
2022-08-16T04:25:25.935Z,27.00
2022-08-16T04:27:54.276Z,27.00
2022-08-16T04:30:32.350Z,27.10
2022-08-16T04:33:02.294Z,27.00
2022-08-16T04:35:33.951Z,27.00
2022-08-16T04:38:10.985Z,27.00
2022-08-16T04:40:48.089Z,27.00
2022-08-16T04:43:17.528Z,27.00
2022-08-16T04:45:45.664Z,27.00
2022-08-16T04:48:12.455Z,27.00
2022-08-16T04:50:49.283Z,27.00
2022-08-16T04:53:16.654Z,27.00
2022-08-16T04:55:46.064Z,27.00
2022-08-16T04:58:43.572Z,27.00
2022-08-16T05:01:08.038Z,27.00
2022-08-16T05:03:35.503Z,27.00
2022-08-16T05:06:09.555Z,27.00
2022-08-16T05:08:37.958Z,27.00
2022-08-16T05:11:14.705Z,27.00
2022-08-16T05:13:45.169Z,26.90
2022-08-16T05:16:30.305Z,27.00
2022-08-16T05:18:59.924Z,26.90
2022-08-16T05:21:38.507Z,26.90
2022-08-16T05:24:07.110Z,26.90
2022-08-16T05:26:37.423Z,26.90
2022-08-16T05:29:11.126Z,26.90
2022-08-16T05:31:47.902Z,26.90
2022-08-16T05:34:19.846Z,26.80
2022-08-16T05:36:49.271Z,26.90
2022-08-16T05:39:18.667Z,26.80
2022-08-16T05:41:47.757Z,26.80
2022-08-16T05:44:23.010Z,26.90
2022-08-16T05:46:53.014Z,26.90
2022-08-16T05:49:22.651Z,26.80
2022-08-16T05:51:50.356Z,26.80
2022-08-16T05:54:25.179Z,26.80
2022-08-16T05:56:53.091Z,26.80
2022-08-16T05:59:21.327Z,26.80
2022-08-16T06:01:50.666Z,26.80
2022-08-16T06:04:36.374Z,26.80
2022-08-16T06:07:08.740Z,26.80
2022-08-16T06:09:44.562Z,26.80
2022-08-16T06:12:27.178Z,26.80
2022-08-16T06:15:07.655Z,26.80
2022-08-16T06:17:42.737Z,26.80
2022-08-16T06:20:23.784Z,26.70
2022-08-16T06:22:58.513Z,26.70
2022-08-16T06:25:35.904Z,26.70
2022-08-16T06:28:08.740Z,26.70
2022-08-16T06:30:36.535Z,26.70
2022-08-16T06:33:22.012Z,26.70
2022-08-16T06:35:55.042Z,26.70
2022-08-16T06:38:33.543Z,26.70
2022-08-16T06:41:13.411Z,26.60
2022-08-16T06:43:42.087Z,26.60
2022-08-16T06:46:20.780Z,26.50
2022-08-16T06:48:51.746Z,26.50
2022-08-16T06:51:19.901Z,26.50
2022-08-16T06:53:49.250Z,26.40
2022-08-16T06:56:23.070Z,26.40
2022-08-16T06:58:52.557Z,26.40
2022-08-16T07:01:46.262Z,26.40
2022-08-16T07:04:10.966Z,26.30
2022-08-16T07:06:40.182Z,26.30
2022-08-16T07:09:11.314Z,26.30
2022-08-16T07:11:47.900Z,26.30
2022-08-16T07:14:25.382Z,26.20
2022-08-16T07:16:58.161Z,26.20
2022-08-16T07:20:01.355Z,26.20
2022-08-16T07:22:37.156Z,26.20
2022-08-16T07:24:59.662Z,26.20
2022-08-16T07:27:27.095Z,26.10
2022-08-16T07:29:55.661Z,26.00
2022-08-16T07:32:29.435Z,26.00
2022-08-16T07:34:58.406Z,26.00
2022-08-16T07:37:25.154Z,26.00
2022-08-16T07:39:52.572Z,26.00
2022-08-16T07:42:28.402Z,26.00
2022-08-16T07:45:03.622Z,26.00
2022-08-16T07:47:36.976Z,26.00
2022-08-16T07:50:07.806Z,26.00
2022-08-16T07:52:35.080Z,26.00
2022-08-16T07:55:06.927Z,26.00
2022-08-16T07:57:37.950Z,26.00
2022-08-16T08:00:18.739Z,26.00
2022-08-16T08:02:47.519Z,25.90
2022-08-16T08:05:19.137Z,25.90
2022-08-16T08:08:03.155Z,26.00
2022-08-16T08:10:38.995Z,26.00
2022-08-16T08:13:05.941Z,26.00
2022-08-16T08:15:37.130Z,26.00
2022-08-16T08:18:29.752Z,26.00
2022-08-16T08:20:59.362Z,26.00
2022-08-16T08:23:27.678Z,26.00
2022-08-16T08:25:55.954Z,26.00
2022-08-16T08:28:22.990Z,26.00
2022-08-16T08:31:02.552Z,26.00
2022-08-16T08:33:32.009Z,26.00
2022-08-16T08:36:03.156Z,26.00
2022-08-16T08:38:44.057Z,26.00
2022-08-16T08:41:15.485Z,26.00
2022-08-16T08:43:46.789Z,26.00
2022-08-16T08:46:21.158Z,26.00
2022-08-16T08:49:01.891Z,26.00
2022-08-16T08:51:31.840Z,26.00
2022-08-16T08:54:07.025Z,26.00
2022-08-16T08:56:45.289Z,26.00
2022-08-16T08:59:19.709Z,26.00
2022-08-16T09:01:56.701Z,26.00
2022-08-16T09:04:25.729Z,26.00
2022-08-16T09:06:53.921Z,26.00
2022-08-16T09:09:21.563Z,26.10
2022-08-16T09:11:53.690Z,26.10
2022-08-16T09:14:32.797Z,26.20
2022-08-16T09:17:03.722Z,26.20
2022-08-16T09:19:34.724Z,26.20
2022-08-16T09:22:02.043Z,26.20
2022-08-16T09:24:51.658Z,26.20
2022-08-16T09:27:16.281Z,26.20
2022-08-16T09:29:45.774Z,26.20
2022-08-16T09:32:28.542Z,26.20
2022-08-16T09:34:58.461Z,26.30
2022-08-16T09:37:30.516Z,26.30
2022-08-16T09:40:32.260Z,26.30
2022-08-16T09:42:59.123Z,26.30
2022-08-16T09:45:28.921Z,26.40
2022-08-16T09:47:58.263Z,26.40
2022-08-16T09:50:36.831Z,26.40
2022-08-16T09:53:15.278Z,26.40
2022-08-16T09:55:50.962Z,26.50
2022-08-16T09:58:41.727Z,26.50
2022-08-16T10:01:11.086Z,26.50
2022-08-16T10:03:38.237Z,26.50
2022-08-16T10:06:26.190Z,26.60
2022-08-16T10:09:06.049Z,26.60
2022-08-16T10:11:53.519Z,26.60
2022-08-16T10:14:24.452Z,26.60
2022-08-16T10:16:59.604Z,26.60
2022-08-16T10:19:29.614Z,26.70
2022-08-16T10:21:59.047Z,26.70
2022-08-16T10:24:28.012Z,26.70
2022-08-16T10:27:20.844Z,26.80
2022-08-16T10:30:00.555Z,26.80
2022-08-16T10:32:32.185Z,26.80
2022-08-16T10:34:59.824Z,26.80
2022-08-16T10:37:32.276Z,26.80
2022-08-16T10:40:04.808Z,26.80
2022-08-16T10:42:31.620Z,26.90
2022-08-16T10:44:58.302Z,26.90
2022-08-16T10:47:26.377Z,26.90
2022-08-16T10:49:55.805Z,27.00
2022-08-16T10:52:24.359Z,27.00
2022-08-16T10:54:59.134Z,27.00
2022-08-16T10:57:32.856Z,27.00
2022-08-16T11:00:00.050Z,27.10
2022-08-16T11:02:57.558Z,27.10
2022-08-16T11:05:17.311Z,27.10
2022-08-16T11:07:51.964Z,27.20
2022-08-16T11:11:05.325Z,27.20
2022-08-16T11:19:12.398Z,27.20
2022-08-16T11:24:41.302Z,27.30
2022-08-16T11:27:23.157Z,27.30
2022-08-16T11:29:55.247Z,27.30
2022-08-16T11:32:30.376Z,27.30
2022-08-16T11:35:14.975Z,27.30
2022-08-16T11:38:46.622Z,27.30
2022-08-16T11:40:44.130Z,27.40
2022-08-16T11:43:16.592Z,27.40
2022-08-16T11:45:53.439Z,27.40
2022-08-16T11:48:22.568Z,27.40
2022-08-16T11:50:49.317Z,27.50
2022-08-16T11:53:17.177Z,27.50
2022-08-16T11:55:44.662Z,27.50
2022-08-16T11:58:12.444Z,27.60
2022-08-16T12:00:51.817Z,27.60
2022-08-16T12:03:34.622Z,27.60
2022-08-16T12:06:10.937Z,27.60
2022-08-16T12:08:39.483Z,27.70
2022-08-16T12:11:08.139Z,27.70
2022-08-16T12:13:34.907Z,27.70
2022-08-16T12:16:02.304Z,27.80
2022-08-16T12:18:29.961Z,27.80
2022-08-16T12:20:58.380Z,27.80
2022-08-16T12:23:26.932Z,27.80
2022-08-16T12:25:53.813Z,27.90
2022-08-16T12:28:36.783Z,27.90
2022-08-16T12:31:08.303Z,27.90
2022-08-16T12:33:44.534Z,27.90
2022-08-16T12:36:13.122Z,27.90
2022-08-16T12:38:48.678Z,27.90
2022-08-16T12:41:25.201Z,27.90
2022-08-16T12:43:52.677Z,28.00
2022-08-16T12:46:24.841Z,28.00
2022-08-16T12:48:58.483Z,28.00
2022-08-16T12:51:58.730Z,28.00
2022-08-16T12:54:26.833Z,28.00
2022-08-16T12:56:54.049Z,28.00
2022-08-16T12:59:23.623Z,28.00
2022-08-16T13:01:55.337Z,28.00
2022-08-16T13:04:25.552Z,28.00
2022-08-16T13:06:53.309Z,28.00
2022-08-16T13:09:26.732Z,28.00
2022-08-16T13:12:00.536Z,28.00
2022-08-16T13:14:33.460Z,28.00
2022-08-16T13:17:03.036Z,28.00
2022-08-16T13:20:05.441Z,28.00
2022-08-16T13:22:24.531Z,28.00
2022-08-16T13:24:53.116Z,28.00
2022-08-16T13:27:20.665Z,28.10
2022-08-16T13:29:57.390Z,28.00
2022-08-16T13:32:39.718Z,28.00
2022-08-16T13:35:11.716Z,28.00
2022-08-16T13:37:41.254Z,28.10
2022-08-16T13:40:09.443Z,28.00
2022-08-16T13:42:47.501Z,28.10
2022-08-16T13:45:16.145Z,28.10
2022-08-16T13:47:43.269Z,28.10
2022-08-16T13:50:11.432Z,28.10
2022-08-16T13:52:39.987Z,28.10
2022-08-16T13:55:17.500Z,28.10
2022-08-16T13:58:34.444Z,28.10
2022-08-16T14:00:31.962Z,28.10
2022-08-16T14:02:59.228Z,28.10
2022-08-16T14:05:27.006Z,28.10
2022-08-16T14:07:55.005Z,28.10
2022-08-16T14:10:21.849Z,28.10
2022-08-16T14:12:48.741Z,28.10
2022-08-16T14:15:16.397Z,28.20
2022-08-16T14:18:14.992Z,28.20
2022-08-16T14:20:30.701Z,28.20
2022-08-16T14:22:59.359Z,28.20
2022-08-16T14:25:27.033Z,28.20
2022-08-16T14:27:54.837Z,28.20
2022-08-16T14:30:23.097Z,28.20
2022-08-16T14:32:51.548Z,28.20
2022-08-16T14:35:36.558Z,28.20
2022-08-16T14:38:09.347Z,28.20
2022-08-16T14:40:36.120Z,28.20
2022-08-16T14:43:05.610Z,28.20
2022-08-16T14:45:34.370Z,28.20
2022-08-16T14:48:01.175Z,28.20
2022-08-16T14:50:28.497Z,28.20
2022-08-16T14:53:05.574Z,28.20
2022-08-16T14:55:36.390Z,28.30
2022-08-16T14:58:04.446Z,28.30
2022-08-16T15:00:36.565Z,28.30
2022-08-16T15:03:07.110Z,28.20
2022-08-16T15:05:39.874Z,28.30
2022-08-16T15:08:07.036Z,28.30
2022-08-16T15:10:34.864Z,28.30
2022-08-16T15:13:06.802Z,28.30
2022-08-16T15:15:37.084Z,28.30
2022-08-16T15:18:06.227Z,28.30
2022-08-16T15:20:37.665Z,28.30
2022-08-16T15:23:08.331Z,28.30
2022-08-16T15:25:44.618Z,28.30
2022-08-16T15:28:31.040Z,28.30
2022-08-16T15:31:03.366Z,28.30
2022-08-16T15:33:34.200Z,28.30
2022-08-16T15:36:02.427Z,28.30
2022-08-16T15:38:57.920Z,28.30
2022-08-16T15:41:38.364Z,28.30
2022-08-16T15:44:11.522Z,28.30
2022-08-16T15:46:55.398Z,28.30
2022-08-16T15:49:34.824Z,28.30
2022-08-16T15:52:29.040Z,28.30
2022-08-16T15:54:57.157Z,28.30
2022-08-16T15:57:25.875Z,28.30
2022-08-16T15:59:57.778Z,28.30
2022-08-16T16:02:31.894Z,28.30
2022-08-16T16:05:07.452Z,28.30
2022-08-16T16:07:37.502Z,28.30
2022-08-16T16:10:12.962Z,28.30
2022-08-16T16:12:51.403Z,28.30
2022-08-16T16:15:23.186Z,28.30
2022-08-16T16:17:52.349Z,28.30
2022-08-16T16:20:27.405Z,28.30
2022-08-16T16:23:00.170Z,28.30
2022-08-16T16:25:29.833Z,28.30
2022-08-16T16:27:59.887Z,28.30
2022-08-16T16:30:38.122Z,28.30
2022-08-16T16:33:15.559Z,28.30
2022-08-16T16:35:47.964Z,28.30
2022-08-16T16:38:23.002Z,28.30
2022-08-16T16:40:54.152Z,28.30
2022-08-16T16:43:25.982Z,28.30
2022-08-16T16:45:59.401Z,28.30
2022-08-16T16:48:29.800Z,28.30
2022-08-16T16:51:09.076Z,28.30
2022-08-16T16:53:41.077Z,28.30
2022-08-16T16:56:19.353Z,28.30
2022-08-16T16:58:56.607Z,28.30
2022-08-16T17:02:00.040Z,28.30
2022-08-16T17:04:31.993Z,28.30
2022-08-16T17:07:01.560Z,28.30
2022-08-16T17:09:28.765Z,28.30
2022-08-16T17:11:56.669Z,28.30
2022-08-16T17:14:33.019Z,28.20
2022-08-16T17:17:06.809Z,28.20
2022-08-16T17:19:40.918Z,28.20
2022-08-16T17:22:14.665Z,28.20
2022-08-16T17:24:51.007Z,28.20
2022-08-16T17:27:32.910Z,28.20
2022-08-16T17:30:16.039Z,28.20
2022-08-16T17:32:48.066Z,28.20
2022-08-16T17:35:18.934Z,28.20
2022-08-16T17:39:27.327Z,28.20
2022-08-16T17:40:47.113Z,28.20
2022-08-16T17:43:27.218Z,28.20
2022-08-16T17:45:54.844Z,28.20
2022-08-16T17:48:21.959Z,28.30
2022-08-16T17:50:49.261Z,28.20
2022-08-16T17:53:21.801Z,28.20
2022-08-16T17:55:50.473Z,28.30
2022-08-16T17:58:23.573Z,28.30
2022-08-16T18:00:57.629Z,28.30
2022-08-16T18:04:09.165Z,28.30
2022-08-16T18:06:31.326Z,28.30
2022-08-16T18:09:03.570Z,28.30
2022-08-16T18:11:35.336Z,28.30
2022-08-16T18:14:02.412Z,28.30
2022-08-16T18:16:29.186Z,28.20
2022-08-16T18:18:57.312Z,28.30
2022-08-16T18:21:46.027Z,28.20
2022-08-16T18:24:14.935Z,28.30
2022-08-16T18:26:41.884Z,28.20
2022-08-16T18:29:08.741Z,28.20
2022-08-16T18:31:36.033Z,28.20
2022-08-16T18:34:03.674Z,28.20
2022-08-16T18:36:30.893Z,28.20
2022-08-16T18:38:57.927Z,28.20
2022-08-16T18:41:26.706Z,28.20
2022-08-16T18:44:00.978Z,28.20
2022-08-16T18:46:43.204Z,28.20
2022-08-16T18:49:11.533Z,28.20
2022-08-16T18:51:42.667Z,28.20
2022-08-16T18:54:16.302Z,28.20
2022-08-16T18:56:55.680Z,28.10
2022-08-16T18:59:27.868Z,28.10
2022-08-16T19:01:56.918Z,28.10
2022-08-16T19:04:55.009Z,28.10
2022-08-16T19:07:17.342Z,28.10
2022-08-16T19:09:44.290Z,28.10
2022-08-16T19:12:11.034Z,28.10
2022-08-16T19:14:45.654Z,28.10
2022-08-16T19:17:12.437Z,28.10
2022-08-16T19:19:39.204Z,28.00
2022-08-16T19:22:06.548Z,28.00
2022-08-16T19:24:33.462Z,28.00
2022-08-16T19:27:01.678Z,28.00
2022-08-16T19:29:29.014Z,28.00
2022-08-16T19:31:55.799Z,28.00
2022-08-16T19:34:22.594Z,28.00
2022-08-16T19:36:49.319Z,28.00
2022-08-16T19:39:17.934Z,28.00
2022-08-16T19:41:53.305Z,28.00
2022-08-16T19:44:24.045Z,28.00
2022-08-16T19:46:51.266Z,27.90
2022-08-16T19:49:18.126Z,27.90
2022-08-16T19:51:46.349Z,27.90
2022-08-16T19:54:13.146Z,27.90
2022-08-16T19:56:39.842Z,27.90
2022-08-16T19:59:39.585Z,27.90
2022-08-16T20:01:53.389Z,27.90
2022-08-16T20:04:21.773Z,27.90
2022-08-16T20:06:48.944Z,27.90
2022-08-16T20:09:16.179Z,27.80
2022-08-16T20:11:45.128Z,27.80
2022-08-16T20:14:24.586Z,27.80
2022-08-16T20:16:53.901Z,27.80
2022-08-16T20:19:20.627Z,27.70
2022-08-16T20:21:47.397Z,27.80
2022-08-16T20:24:32.499Z,27.70
2022-08-16T20:27:01.424Z,27.70
2022-08-16T20:29:28.930Z,27.70
2022-08-16T20:31:56.140Z,27.70
2022-08-16T20:34:22.908Z,27.60
2022-08-16T20:36:49.603Z,27.60
2022-08-16T20:39:16.473Z,27.60
2022-08-16T20:44:28.455Z,27.60
2022-08-16T20:46:55.202Z,27.60
2022-08-16T20:49:24.737Z,27.50
2022-08-16T20:51:54.850Z,27.50
2022-08-16T20:54:22.909Z,27.50
2022-08-16T20:56:49.760Z,27.50
2022-08-16T20:59:16.707Z,27.50
2022-08-16T21:01:47.122Z,27.40
2022-08-16T21:04:19.204Z,27.40
2022-08-16T21:06:53.118Z,27.50
2022-08-16T21:09:32.521Z,27.50
2022-08-16T21:12:02.160Z,27.50
2022-08-16T21:14:30.947Z,27.50
2022-08-16T21:16:57.920Z,27.50
2022-08-16T21:19:25.131Z,27.50
2022-08-16T21:21:51.880Z,27.50
2022-08-16T21:24:18.705Z,27.50
2022-08-16T21:26:55.127Z,27.50
2022-08-16T21:29:22.395Z,27.50
2022-08-16T21:31:53.115Z,27.50
2022-08-16T21:34:19.861Z,27.50
2022-08-16T21:36:46.551Z,27.50
2022-08-16T21:39:13.359Z,27.50
2022-08-16T21:41:40.047Z,27.50
2022-08-16T21:44:07.161Z,27.50
2022-08-16T21:46:33.959Z,27.50
2022-08-16T21:49:00.851Z,27.50
2022-08-16T21:51:27.689Z,27.50
2022-08-16T21:53:54.455Z,27.50
2022-08-16T21:56:21.170Z,27.50
2022-08-16T21:58:53.109Z,27.50
2022-08-16T22:01:22.250Z,27.50
2022-08-16T22:03:49.778Z,27.50
2022-08-16T22:06:37.652Z,27.50
2022-08-16T22:09:06.472Z,27.50
2022-08-16T22:11:33.563Z,27.50
2022-08-16T22:14:00.931Z,27.50
2022-08-16T22:16:31.395Z,27.50
2022-08-16T22:18:58.520Z,27.50
2022-08-16T22:21:25.554Z,27.50
2022-08-16T22:23:57.234Z,27.50
2022-08-16T22:26:30.799Z,27.50
2022-08-16T22:29:04.810Z,27.50
2022-08-16T22:31:32.286Z,27.50
2022-08-16T22:34:01.566Z,27.50
2022-08-16T22:36:29.099Z,27.50
2022-08-16T22:38:58.748Z,27.50
2022-08-16T22:41:27.509Z,27.50
2022-08-16T22:43:54.661Z,27.50
2022-08-16T22:46:21.625Z,27.50
2022-08-16T22:48:50.416Z,27.50
2022-08-16T22:51:19.531Z,27.50
2022-08-16T22:53:46.412Z,27.50
2022-08-16T22:56:13.383Z,27.50
2022-08-16T22:58:40.070Z,27.50
2022-08-16T23:01:08.512Z,27.50
2022-08-16T23:03:36.704Z,27.50
2022-08-16T23:06:04.880Z,27.50
2022-08-16T23:08:39.049Z,27.50
2022-08-16T23:11:10.507Z,27.50
2022-08-16T23:13:37.740Z,27.50
2022-08-16T23:16:17.100Z,27.50
2022-08-16T23:18:43.824Z,27.50
2022-08-16T23:21:11.015Z,27.40
2022-08-16T23:23:38.252Z,27.50
2022-08-16T23:26:45.090Z,27.40
2022-08-16T23:28:53.151Z,27.40
2022-08-16T23:31:19.945Z,27.50
2022-08-16T23:33:46.761Z,27.40
2022-08-16T23:36:13.514Z,27.50
2022-08-16T23:38:40.286Z,27.40
2022-08-16T23:41:12.047Z,27.50
2022-08-16T23:43:44.358Z,27.40
2022-08-16T23:46:16.165Z,27.40
2022-08-16T23:49:56.900Z,27.40
2022-08-16T23:51:31.100Z,27.40
2022-08-16T23:53:57.936Z,27.40
2022-08-16T23:56:25.785Z,27.40
2022-08-16T23:58:58.265Z,27.40
